Clipper Saga — LAFY6 — position and weather

sailwx.info

Track history (hours):
 
Tides and Currents Weather Stations Pressure Air Temp Water Temp Dewpoint Dewpoint Depression Visibility Wind Speed Wind Dir Waves Ship Positions

Clipper Saga

Last reported at 2015-Aug-31 13:06 UTC. Time now 2015-Sep-01 06:01 UTC.
Position N 51°46' E 002°11'.

Length 89 m; draft 5.9 m.

Type: Ship (hazmat cat C). MMSI: 246657008.

Date/timePositionNaut miles runAvg speedWind from/ knotsBaromVisibWave heightAir tempDewpointWater temp
2015-Aug-31 13:06N 51°46' E 002°11'712.8
2015-Aug-31 12:33N 51°40' E 002°05'1211.9
2015-Aug-31 11:33N 51°32' E 001°50'4 3.9
2015-Aug-31 10:33N 51°34' E 001°56'6 6.1
2015-Aug-31 09:33N 51°37' E 002°05'12 5.9
2015-Aug-31 07:32N 51°48' E 002°09'8 7.8
2015-Aug-31 06:33N 51°41' E 002°04'3 2.8
2015-Aug-31 05:33N 51°40' E 002°08'8 7.8
2015-Aug-31 04:30N 51°46' E 002°15'4 4.1
2015-Aug-31 03:34N 51°48' E 002°10'10 9.9
2015-Aug-31 02:33N 51°39' E 002°04'9 9.5
2015-Aug-31 01:33N 51°33' E 001°52'8 8.5
2015-Aug-31 00:33N 51°30' E 001°40'7 7.3
2015-Aug-30 23:34N 51°26' E 001°29'9 8.6
2015-Aug-30 22:34N 51°29' E 001°16'9 9.4
2015-Aug-30 21:33N 51°29' E 001°01'1010.1
2015-Aug-30 20:33N 51°29' E 000°45'1111.1
2015-Aug-30 19:34N 51°28' E 000°27'1010.2
2015-Aug-30 18:34N 51°29' E 000°11'2 0.3
2015-Aug-30 10:08N 51°31' E 000°08'0 0.2
2015-Aug-30 09:33N 51°31' E 000°08'9 9.0
2015-Aug-30 08:34N 51°27' E 000°21'8 7.8
2015-Aug-30 07:34N 51°30' E 000°33'9 9.4
2015-Aug-30 06:34N 51°29' E 000°48'1010.4
2015-Aug-30 05:34N 51°30' E 001°04'1010.0
2015-Aug-30 04:34N 51°29' E 001°20'5 5.1
2015-Aug-30 03:31N 51°25' E 001°27'0 0.0
2015-Aug-30 02:31N 51°25' E 001°27'0 0.1
2015-Aug-30 01:31N 51°25' E 001°26'0 0.1
2015-Aug-30 00:31N 51°25' E 001°26'0 0.0
2015-Aug-29 23:31N 51°25' E 001°26'0 0.0
2015-Aug-29 22:31N 51°25' E 001°26'0 0.1
2015-Aug-29 21:31N 51°25' E 001°26'0 0.1
2015-Aug-29 20:31N 51°25' E 001°26'0 0.0
2015-Aug-29 19:31N 51°25' E 001°26'0 0.0
2015-Aug-29 18:31N 51°25' E 001°26'0 0.0
2015-Aug-29 17:31N 51°25' E 001°27'0 0.0
2015-Aug-29 16:31N 51°25' E 001°27'0 0.0
2015-Aug-29 15:31N 51°25' E 001°27'0 0.0
2015-Aug-29 14:31N 51°25' E 001°27'0 0.0
2015-Aug-29 13:31N 51°25' E 001°27'0 0.1
2015-Aug-29 12:31N 51°25' E 001°26'0 0.0
2015-Aug-29 11:31N 51°25' E 001°26'1 1.4
2015-Aug-29 10:33N 51°26' E 001°28'1212.3
2015-Aug-29 09:33N 51°35' E 001°42'1313.0
2015-Aug-29 08:33N 51°48' E 001°43'3013.9
2015-Aug-29 06:25N 52°17' E 001°52'1213.4
2015-Aug-29 05:34N 52°28' E 001°56'1312.7
2015-Aug-29 04:33N 52°41' E 001°56'1111.0
2015-Aug-29 03:33N 52°51' E 001°46'1110.8
2015-Aug-29 02:33N 52°58' E 001°34'1010.2
2015-Aug-29 01:33N 53°07' E 001°24'2210.0
2015-Aug-28 23:21N 53°25' E 001°05'18 9.9
2015-Aug-28 21:32N 53°41' E 000°49'10 9.9
2015-Aug-28 20:33N 53°49' E 000°40'1010.6
2015-Aug-28 19:34N 53°58' E 000°31'1111.2
2015-Aug-28 18:34N 54°07' E 000°20'1211.7
2015-Aug-28 17:33N 54°17' E 000°10'1212.4
2015-Aug-28 16:34N 54°28' W 000°01'1312.7
2015-Aug-28 15:34N 54°38' W 000°14'1212.1
2015-Aug-28 14:33N 54°45' W 000°31'1212.0
2015-Aug-28 13:33N 54°44' W 000°52'1211.9
2015-Aug-28 12:33N 54°38' W 001°09'2 1.3
2015-Aug-28 11:11N 54°37' W 001°10'0 0.0
2015-Aug-28 10:23N 54°37' W 001°10'0 0.0
2015-Aug-28 09:11N 54°37' W 001°10'0 0.0
2015-Aug-28 07:14N 54°37' W 001°10'0 0.0
2015-Aug-27 23:21N 54°37' W 001°09'5 6.8
2015-Aug-27 22:33N 54°41' W 001°04'7 7.2
2015-Aug-27 21:33N 54°44' W 000°53'1110.8
2015-Aug-27 20:30N 54°49' W 000°36'1111.0
2015-Aug-27 19:33N 54°54' W 000°19'1111.1
2015-Aug-27 18:33N 54°59' W 000°02'388 9.5
2015-Aug-26 01:34N 57°51' E 010°26'1010.1
2015-Aug-26 00:34N 57°51' E 010°45'9 9.2
2015-Aug-25 23:34N 57°51' E 011°03'9 8.7
2015-Aug-25 22:34N 57°51' E 011°19'8 8.2
2015-Aug-25 21:34N 57°54' E 011°33'9 8.5
2015-Aug-25 20:33N 57°60' E 011°45'6 5.8
2015-Aug-25 19:33N 58°05' E 011°49'0 0.0
2015-Aug-25 03:33N 58°05' E 011°49'8 7.5
2015-Aug-25 02:33N 57°58' E 011°44'2 2.4
2015-Aug-25 01:32N 57°56' E 011°42'0 0.0
2015-Aug-25 00:32N 57°56' E 011°42'0 0.0
2015-Aug-24 23:32N 57°56' E 011°42'0 0.0
2015-Aug-24 22:32N 57°56' E 011°42'0 0.0
2015-Aug-24 21:32N 57°56' E 011°42'6 6.1
2015-Aug-24 20:34N 57°54' E 011°31'1211.8
2015-Aug-24 19:33N 57°42' E 011°26'1010.2
2015-Aug-24 18:33N 57°36' E 011°41'0 0.1
2015-Aug-24 17:33N 57°36' E 011°41'0 0.1
2015-Aug-24 16:33N 57°36' E 011°41'8 7.7
2015-Aug-24 15:33N 57°40' E 011°29'1010.2
2015-Aug-24 14:33N 57°48' E 011°17'1110.4
2015-Aug-24 13:32N 57°57' E 011°05'1010.0
2015-Aug-24 12:33N 58°05' E 010°55'1010.4
2015-Aug-24 11:33N 58°15' E 010°48'1010.0
2015-Aug-24 10:33N 58°24' E 010°42'9 9.3
2015-Aug-24 09:33N 58°33' E 010°36'9 9.1
2015-Aug-24 08:33N 58°42' E 010°31'10 9.7
2015-Aug-24 07:33N 58°51' E 010°36'1211.7
2015-Aug-24 06:33N 59°02' E 010°45'8 8.4
2015-Aug-24 05:33N 59°07' E 010°58'9 9.0
2015-Aug-24 04:33N 59°16' E 011°03'2 0.0
2015-Aug-22 09:23N 59°16' E 011°06'3 4.0
2015-Aug-22 08:33N 59°15' E 011°00'7 7.4
2015-Aug-22 07:33N 59°07' E 010°59'7 7.3
2015-Aug-22 06:33N 59°02' E 010°50'9 9.2
2015-Aug-22 05:33N 58°57' E 010°35'1010.3
2015-Aug-22 04:33N 58°49' E 010°22'10 9.7
2015-Aug-22 03:33N 58°41' E 010°10'1110.8
2015-Aug-22 02:33N 58°33' E 009°57'1110.7
2015-Aug-22 01:33N 58°24' E 009°45'1111.1
2015-Aug-22 00:33N 58°16' E 009°32'1111.0
2015-Aug-21 23:33N 58°07' E 009°19'1211.6
2015-Aug-21 22:33N 57°58' E 009°05'  
Track history (hours):
 
Tides and Currents Weather Stations Pressure Air Temp Water Temp Dewpoint Dewpoint Depression Visibility Wind Speed Wind Dir Waves Ship Positions

Clipper Saga

Last reported at 2015-Aug-31 13:06 UTC. Time now 2015-Sep-01 06:01 UTC.
Position N 51°46' E 002°11'.

Length 89 m; draft 5.9 m.

Type: Ship (hazmat cat C). MMSI: 246657008.

Date/timePositionNaut miles runAvg speedWind from/ knotsBaromVisibWave heightAir tempDewpointWater temp
2015-Aug-31 13:06N 51°46' E 002°11'712.8
2015-Aug-31 12:33N 51°40' E 002°05'1211.9
2015-Aug-31 11:33N 51°32' E 001°50'4 3.9
2015-Aug-31 10:33N 51°34' E 001°56'6 6.1
2015-Aug-31 09:33N 51°37' E 002°05'12 5.9
2015-Aug-31 07:32N 51°48' E 002°09'8 7.8
2015-Aug-31 06:33N 51°41' E 002°04'3 2.8
2015-Aug-31 05:33N 51°40' E 002°08'8 7.8
2015-Aug-31 04:30N 51°46' E 002°15'4 4.1
2015-Aug-31 03:34N 51°48' E 002°10'10 9.9
2015-Aug-31 02:33N 51°39' E 002°04'9 9.5
2015-Aug-31 01:33N 51°33' E 001°52'8 8.5
2015-Aug-31 00:33N 51°30' E 001°40'7 7.3
2015-Aug-30 23:34N 51°26' E 001°29'9 8.6
2015-Aug-30 22:34N 51°29' E 001°16'9 9.4
2015-Aug-30 21:33N 51°29' E 001°01'1010.1
2015-Aug-30 20:33N 51°29' E 000°45'1111.1
2015-Aug-30 19:34N 51°28' E 000°27'1010.2
2015-Aug-30 18:34N 51°29' E 000°11'2 0.3
2015-Aug-30 10:08N 51°31' E 000°08'0 0.2
2015-Aug-30 09:33N 51°31' E 000°08'9 9.0
2015-Aug-30 08:34N 51°27' E 000°21'8 7.8
2015-Aug-30 07:34N 51°30' E 000°33'9 9.4
2015-Aug-30 06:34N 51°29' E 000°48'1010.4
2015-Aug-30 05:34N 51°30' E 001°04'1010.0
2015-Aug-30 04:34N 51°29' E 001°20'5 5.1
2015-Aug-30 03:31N 51°25' E 001°27'0 0.0
2015-Aug-30 02:31N 51°25' E 001°27'0 0.1
2015-Aug-30 01:31N 51°25' E 001°26'0 0.1
2015-Aug-30 00:31N 51°25' E 001°26'0 0.0
2015-Aug-29 23:31N 51°25' E 001°26'0 0.0
2015-Aug-29 22:31N 51°25' E 001°26'0 0.1
2015-Aug-29 21:31N 51°25' E 001°26'0 0.1
2015-Aug-29 20:31N 51°25' E 001°26'0 0.0
2015-Aug-29 19:31N 51°25' E 001°26'0 0.0
2015-Aug-29 18:31N 51°25' E 001°26'0 0.0
2015-Aug-29 17:31N 51°25' E 001°27'0 0.0
2015-Aug-29 16:31N 51°25' E 001°27'0 0.0
2015-Aug-29 15:31N 51°25' E 001°27'0 0.0
2015-Aug-29 14:31N 51°25' E 001°27'0 0.0
2015-Aug-29 13:31N 51°25' E 001°27'0 0.1
2015-Aug-29 12:31N 51°25' E 001°26'0 0.0
2015-Aug-29 11:31N 51°25' E 001°26'1 1.4
2015-Aug-29 10:33N 51°26' E 001°28'1212.3
2015-Aug-29 09:33N 51°35' E 001°42'1313.0
2015-Aug-29 08:33N 51°48' E 001°43'3013.9
2015-Aug-29 06:25N 52°17' E 001°52'1213.4
2015-Aug-29 05:34N 52°28' E 001°56'1312.7
2015-Aug-29 04:33N 52°41' E 001°56'1111.0
2015-Aug-29 03:33N 52°51' E 001°46'1110.8
2015-Aug-29 02:33N 52°58' E 001°34'1010.2
2015-Aug-29 01:33N 53°07' E 001°24'2210.0
2015-Aug-28 23:21N 53°25' E 001°05'18 9.9
2015-Aug-28 21:32N 53°41' E 000°49'10 9.9
2015-Aug-28 20:33N 53°49' E 000°40'1010.6
2015-Aug-28 19:34N 53°58' E 000°31'1111.2
2015-Aug-28 18:34N 54°07' E 000°20'1211.7
2015-Aug-28 17:33N 54°17' E 000°10'1212.4
2015-Aug-28 16:34N 54°28' W 000°01'1312.7
2015-Aug-28 15:34N 54°38' W 000°14'1212.1
2015-Aug-28 14:33N 54°45' W 000°31'1212.0
2015-Aug-28 13:33N 54°44' W 000°52'1211.9
2015-Aug-28 12:33N 54°38' W 001°09'2 1.3
2015-Aug-28 11:11N 54°37' W 001°10'0 0.0
2015-Aug-28 10:23N 54°37' W 001°10'0 0.0
2015-Aug-28 09:11N 54°37' W 001°10'0 0.0
2015-Aug-28 07:14N 54°37' W 001°10'0 0.0
2015-Aug-27 23:21N 54°37' W 001°09'5 6.8
2015-Aug-27 22:33N 54°41' W 001°04'7 7.2
2015-Aug-27 21:33N 54°44' W 000°53'1110.8
2015-Aug-27 20:30N 54°49' W 000°36'1111.0
2015-Aug-27 19:33N 54°54' W 000°19'1111.1
2015-Aug-27 18:33N 54°59' W 000°02'388 9.5
2015-Aug-26 01:34N 57°51' E 010°26'1010.1
2015-Aug-26 00:34N 57°51' E 010°45'9 9.2
2015-Aug-25 23:34N 57°51' E 011°03'9 8.7
2015-Aug-25 22:34N 57°51' E 011°19'8 8.2
2015-Aug-25 21:34N 57°54' E 011°33'9 8.5
2015-Aug-25 20:33N 57°60' E 011°45'6 5.8
2015-Aug-25 19:33N 58°05' E 011°49'0 0.0
2015-Aug-25 03:33N 58°05' E 011°49'8 7.5
2015-Aug-25 02:33N 57°58' E 011°44'2 2.4
2015-Aug-25 01:32N 57°56' E 011°42'0 0.0
2015-Aug-25 00:32N 57°56' E 011°42'0 0.0
2015-Aug-24 23:32N 57°56' E 011°42'0 0.0
2015-Aug-24 22:32N 57°56' E 011°42'0 0.0
2015-Aug-24 21:32N 57°56' E 011°42'6 6.1
2015-Aug-24 20:34N 57°54' E 011°31'1211.8
2015-Aug-24 19:33N 57°42' E 011°26'1010.2
2015-Aug-24 18:33N 57°36' E 011°41'0 0.1
2015-Aug-24 17:33N 57°36' E 011°41'0 0.1
2015-Aug-24 16:33N 57°36' E 011°41'8 7.7
2015-Aug-24 15:33N 57°40' E 011°29'1010.2
2015-Aug-24 14:33N 57°48' E 011°17'1110.4
2015-Aug-24 13:32N 57°57' E 011°05'1010.0
2015-Aug-24 12:33N 58°05' E 010°55'1010.4
2015-Aug-24 11:33N 58°15' E 010°48'1010.0
2015-Aug-24 10:33N 58°24' E 010°42'9 9.3
2015-Aug-24 09:33N 58°33' E 010°36'9 9.1
2015-Aug-24 08:33N 58°42' E 010°31'10 9.7
2015-Aug-24 07:33N 58°51' E 010°36'1211.7
2015-Aug-24 06:33N 59°02' E 010°45'8 8.4
2015-Aug-24 05:33N 59°07' E 010°58'9 9.0
2015-Aug-24 04:33N 59°16' E 011°03'2 0.0
2015-Aug-22 09:23N 59°16' E 011°06'3 4.0
2015-Aug-22 08:33N 59°15' E 011°00'7 7.4
2015-Aug-22 07:33N 59°07' E 010°59'7 7.3
2015-Aug-22 06:33N 59°02' E 010°50'9 9.2
2015-Aug-22 05:33N 58°57' E 010°35'1010.3
2015-Aug-22 04:33N 58°49' E 010°22'10 9.7
2015-Aug-22 03:33N 58°41' E 010°10'1110.8
2015-Aug-22 02:33N 58°33' E 009°57'1110.7
2015-Aug-22 01:33N 58°24' E 009°45'1111.1
2015-Aug-22 00:33N 58°16' E 009°32'1111.0
2015-Aug-21 23:33N 58°07' E 009°19'1211.6
2015-Aug-21 22:33N 57°58' E 009°05'  

Dump ship's entire track history